sensor_id;sensor_type;location;lat;lon;timestamp;P1;durP1;ratioP1;P2;durP2;ratioP2
49177;SDS011;35016;55.674;37.468;2022-07-15T00:00:22;10.18;;;3.45;;
49177;SDS011;35016;55.674;37.468;2022-07-15T00:02:49;7.05;;;2.35;;
49177;SDS011;35016;55.674;37.468;2022-07-15T00:05:17;6.25;;;2.42;;
49177;SDS011;35016;55.674;37.468;2022-07-15T00:07:44;7.38;;;2.90;;
49177;SDS011;35016;55.674;37.468;2022-07-15T00:10:11;8.32;;;2.83;;
49177;SDS011;35016;55.674;37.468;2022-07-15T00:12:53;9.32;;;3.60;;
49177;SDS011;35016;55.674;37.468;2022-07-15T00:15:25;7.13;;;3.15;;
49177;SDS011;35016;55.674;37.468;2022-07-15T00:17:55;7.22;;;2.88;;
49177;SDS011;35016;55.674;37.468;2022-07-15T00:20:27;6.70;;;2.63;;
49177;SDS011;35016;55.674;37.468;2022-07-15T00:23:02;5.97;;;2.63;;
49177;SDS011;35016;55.674;37.468;2022-07-15T00:26:29;6.03;;;2.50;;
49177;SDS011;35016;55.674;37.468;2022-07-15T00:29:02;9.38;;;2.95;;
49177;SDS011;35016;55.674;37.468;2022-07-15T00:31:32;14.52;;;2.78;;
49177;SDS011;35016;55.674;37.468;2022-07-15T00:34:02;6.97;;;3.30;;
49177;SDS011;35016;55.674;37.468;2022-07-15T00:36:30;9.38;;;2.85;;
49177;SDS011;35016;55.674;37.468;2022-07-15T00:38:57;8.52;;;3.00;;
49177;SDS011;35016;55.674;37.468;2022-07-15T00:41:24;7.60;;;2.97;;
49177;SDS011;35016;55.674;37.468;2022-07-15T00:43:54;6.40;;;3.03;;
49177;SDS011;35016;55.674;37.468;2022-07-15T00:46:21;6.85;;;2.85;;
49177;SDS011;35016;55.674;37.468;2022-07-15T00:48:48;7.78;;;2.70;;
49177;SDS011;35016;55.674;37.468;2022-07-15T00:51:16;6.45;;;2.92;;
49177;SDS011;35016;55.674;37.468;2022-07-15T00:53:43;8.45;;;3.10;;
49177;SDS011;35016;55.674;37.468;2022-07-15T00:56:12;8.75;;;4.10;;
49177;SDS011;35016;55.674;37.468;2022-07-15T00:58:42;7.45;;;3.13;;
49177;SDS011;35016;55.674;37.468;2022-07-15T01:01:10;6.25;;;2.28;;
49177;SDS011;35016;55.674;37.468;2022-07-15T01:03:38;7.97;;;3.88;;
49177;SDS011;35016;55.674;37.468;2022-07-15T01:06:07;7.22;;;3.53;;
49177;SDS011;35016;55.674;37.468;2022-07-15T01:08:34;7.60;;;3.10;;
49177;SDS011;35016;55.674;37.468;2022-07-15T01:11:01;7.53;;;2.88;;
49177;SDS011;35016;55.674;37.468;2022-07-15T01:13:28;9.02;;;3.20;;
49177;SDS011;35016;55.674;37.468;2022-07-15T01:15:56;7.05;;;3.03;;
49177;SDS011;35016;55.674;37.468;2022-07-15T01:18:24;8.02;;;3.05;;
49177;SDS011;35016;55.674;37.468;2022-07-15T01:20:53;9.30;;;3.47;;
49177;SDS011;35016;55.674;37.468;2022-07-15T01:23:21;7.13;;;3.22;;
49177;SDS011;35016;55.674;37.468;2022-07-15T01:26:04;8.67;;;2.87;;
49177;SDS011;35016;55.674;37.468;2022-07-15T01:28:32;6.30;;;2.53;;
49177;SDS011;35016;55.674;37.468;2022-07-15T01:30:59;7.28;;;2.72;;
49177;SDS011;35016;55.674;37.468;2022-07-15T01:33:29;6.57;;;2.75;;
49177;SDS011;35016;55.674;37.468;2022-07-15T01:35:59;7.65;;;3.25;;
49177;SDS011;35016;55.674;37.468;2022-07-15T01:38:29;6.57;;;3.00;;
49177;SDS011;35016;55.674;37.468;2022-07-15T01:41:00;7.82;;;2.53;;
49177;SDS011;35016;55.674;37.468;2022-07-15T01:43:27;8.60;;;2.80;;
49177;SDS011;35016;55.674;37.468;2022-07-15T01:45:54;7.15;;;2.45;;
49177;SDS011;35016;55.674;37.468;2022-07-15T01:48:28;7.82;;;2.75;;
49177;SDS011;35016;55.674;37.468;2022-07-15T01:51:34;6.25;;;2.20;;
49177;SDS011;35016;55.674;37.468;2022-07-15T01:54:01;8.60;;;3.05;;
49177;SDS011;35016;55.674;37.468;2022-07-15T01:56:28;6.57;;;2.53;;
49177;SDS011;35016;55.674;37.468;2022-07-15T01:58:55;6.65;;;2.58;;
49177;SDS011;35016;55.674;37.468;2022-07-15T02:01:23;5.55;;;1.90;;
49177;SDS011;35016;55.674;37.468;2022-07-15T02:03:50;7.28;;;3.00;;
49177;SDS011;35016;55.674;37.468;2022-07-15T02:06:17;9.40;;;2.80;;
49177;SDS011;35016;55.674;37.468;2022-07-15T02:08:44;6.57;;;2.58;;
49177;SDS011;35016;55.674;37.468;2022-07-15T02:11:14;5.03;;;2.20;;
49177;SDS011;35016;55.674;37.468;2022-07-15T02:13:45;6.85;;;2.40;;
49177;SDS011;35016;55.674;37.468;2022-07-15T02:16:14;6.03;;;2.63;;
49177;SDS011;35016;55.674;37.468;2022-07-15T02:18:41;7.43;;;2.60;;
49177;SDS011;35016;55.674;37.468;2022-07-15T02:21:09;6.65;;;2.35;;
49177;SDS011;35016;55.674;37.468;2022-07-15T02:23:37;6.65;;;2.20;;
49177;SDS011;35016;55.674;37.468;2022-07-15T02:26:05;7.75;;;2.47;;
49177;SDS011;35016;55.674;37.468;2022-07-15T02:28:32;6.72;;;2.60;;
49177;SDS011;35016;55.674;37.468;2022-07-15T02:30:59;6.63;;;2.97;;
49177;SDS011;35016;55.674;37.468;2022-07-15T02:33:32;9.68;;;3.25;;
49177;SDS011;35016;55.674;37.468;2022-07-15T02:35:59;5.38;;;2.05;;
49177;SDS011;35016;55.674;37.468;2022-07-15T02:38:27;6.35;;;2.83;;
49177;SDS011;35016;55.674;37.468;2022-07-15T02:40:56;6.47;;;2.50;;
49177;SDS011;35016;55.674;37.468;2022-07-15T02:43:25;8.20;;;2.65;;
49177;SDS011;35016;55.674;37.468;2022-07-15T02:45:52;7.30;;;2.33;;
49177;SDS011;35016;55.674;37.468;2022-07-15T02:48:19;6.45;;;2.30;;
49177;SDS011;35016;55.674;37.468;2022-07-15T02:50:48;6.38;;;2.35;;
49177;SDS011;35016;55.674;37.468;2022-07-15T02:53:16;6.97;;;2.67;;
49177;SDS011;35016;55.674;37.468;2022-07-15T02:55:46;7.65;;;2.13;;
49177;SDS011;35016;55.674;37.468;2022-07-15T02:58:16;6.35;;;2.22;;
49177;SDS011;35016;55.674;37.468;2022-07-15T03:00:44;5.70;;;2.63;;
49177;SDS011;35016;55.674;37.468;2022-07-15T03:03:11;4.88;;;1.90;;
49177;SDS011;35016;55.674;37.468;2022-07-15T03:05:39;6.90;;;2.65;;
49177;SDS011;35016;55.674;37.468;2022-07-15T03:08:08;5.07;;;2.00;;
49177;SDS011;35016;55.674;37.468;2022-07-15T03:10:35;5.45;;;1.92;;
49177;SDS011;35016;55.674;37.468;2022-07-15T03:13:06;6.30;;;2.20;;
49177;SDS011;35016;55.674;37.468;2022-07-15T03:15:36;5.60;;;2.10;;
49177;SDS011;35016;55.674;37.468;2022-07-15T03:18:03;8.77;;;2.40;;
49177;SDS011;35016;55.674;37.468;2022-07-15T03:20:30;5.22;;;2.05;;
49177;SDS011;35016;55.674;37.468;2022-07-15T03:22:58;10.05;;;2.67;;
49177;SDS011;35016;55.674;37.468;2022-07-15T03:25:25;5.90;;;2.47;;
49177;SDS011;35016;55.674;37.468;2022-07-15T03:27:52;5.07;;;2.30;;
49177;SDS011;35016;55.674;37.468;2022-07-15T03:30:19;7.20;;;2.55;;
49177;SDS011;35016;55.674;37.468;2022-07-15T03:32:48;5.35;;;1.85;;
49177;SDS011;35016;55.674;37.468;2022-07-15T03:35:17;6.85;;;2.83;;
49177;SDS011;35016;55.674;37.468;2022-07-15T03:37:45;5.55;;;2.30;;
49177;SDS011;35016;55.674;37.468;2022-07-15T03:40:14;5.43;;;2.17;;
49177;SDS011;35016;55.674;37.468;2022-07-15T03:42:41;5.50;;;2.30;;
49177;SDS011;35016;55.674;37.468;2022-07-15T03:45:08;6.85;;;2.50;;
49177;SDS011;35016;55.674;37.468;2022-07-15T03:47:35;7.15;;;2.50;;
49177;SDS011;35016;55.674;37.468;2022-07-15T03:50:06;6.55;;;2.47;;
49177;SDS011;35016;55.674;37.468;2022-07-15T03:52:35;7.50;;;2.53;;
49177;SDS011;35016;55.674;37.468;2022-07-15T03:55:05;9.07;;;3.58;;
49177;SDS011;35016;55.674;37.468;2022-07-15T03:57:32;6.22;;;2.22;;
49177;SDS011;35016;55.674;37.468;2022-07-15T03:59:59;4.95;;;2.15;;
49177;SDS011;35016;55.674;37.468;2022-07-15T04:02:27;6.47;;;2.38;;
49177;SDS011;35016;55.674;37.468;2022-07-15T04:04:57;4.90;;;1.63;;
49177;SDS011;35016;55.674;37.468;2022-07-15T04:07:24;6.28;;;2.28;;
49177;SDS011;35016;55.674;37.468;2022-07-15T04:09:51;5.72;;;2.25;;
49177;SDS011;35016;55.674;37.468;2022-07-15T04:12:18;8.13;;;2.38;;
49177;SDS011;35016;55.674;37.468;2022-07-15T04:14:46;6.07;;;2.35;;
49177;SDS011;35016;55.674;37.468;2022-07-15T04:17:15;5.80;;;1.95;;
49177;SDS011;35016;55.674;37.468;2022-07-15T04:19:42;5.72;;;1.70;;
49177;SDS011;35016;55.674;37.468;2022-07-15T04:22:10;5.40;;;2.20;;
49177;SDS011;35016;55.674;37.468;2022-07-15T04:24:44;5.55;;;2.30;;
49177;SDS011;35016;55.674;37.468;2022-07-15T04:27:14;4.95;;;1.92;;
49177;SDS011;35016;55.674;37.468;2022-07-15T04:29:43;5.18;;;2.25;;
49177;SDS011;35016;55.674;37.468;2022-07-15T04:32:12;5.30;;;2.05;;
49177;SDS011;35016;55.674;37.468;2022-07-15T04:34:44;6.53;;;2.50;;
49177;SDS011;35016;55.674;37.468;2022-07-15T04:37:11;6.03;;;2.10;;
49177;SDS011;35016;55.674;37.468;2022-07-15T04:39:43;5.13;;;1.80;;
49177;SDS011;35016;55.674;37.468;2022-07-15T04:42:11;6.43;;;1.88;;
49177;SDS011;35016;55.674;37.468;2022-07-15T04:44:42;3.67;;;1.60;;
49177;SDS011;35016;55.674;37.468;2022-07-15T04:47:13;4.28;;;1.70;;
49177;SDS011;35016;55.674;37.468;2022-07-15T04:49:52;5.72;;;2.03;;
49177;SDS011;35016;55.674;37.468;2022-07-15T04:52:43;7.28;;;1.90;;
49177;SDS011;35016;55.674;37.468;2022-07-15T04:55:15;4.25;;;1.55;;
49177;SDS011;35016;55.674;37.468;2022-07-15T04:57:50;5.10;;;1.75;;
49177;SDS011;35016;55.674;37.468;2022-07-15T05:00:17;5.03;;;2.15;;
49177;SDS011;35016;55.674;37.468;2022-07-15T05:02:48;4.97;;;2.10;;
49177;SDS011;35016;55.674;37.468;2022-07-15T05:05:27;6.40;;;2.05;;
49177;SDS011;35016;55.674;37.468;2022-07-15T05:08:20;5.30;;;1.92;;
49177;SDS011;35016;55.674;37.468;2022-07-15T05:11:03;6.28;;;1.80;;
49177;SDS011;35016;55.674;37.468;2022-07-15T05:13:31;4.32;;;1.60;;
49177;SDS011;35016;55.674;37.468;2022-07-15T05:16:02;4.43;;;1.75;;
49177;SDS011;35016;55.674;37.468;2022-07-15T05:18:33;6.55;;;1.92;;
49177;SDS011;35016;55.674;37.468;2022-07-15T05:21:07;7.20;;;2.00;;
49177;SDS011;35016;55.674;37.468;2022-07-15T05:24:27;6.00;;;2.05;;
49177;SDS011;35016;55.674;37.468;2022-07-15T05:33:45;3.22;;;1.30;;
49177;SDS011;35016;55.674;37.468;2022-07-15T05:41:08;2.58;;;1.10;;
49177;SDS011;35016;55.674;37.468;2022-07-15T05:43:45;5.82;;;2.03;;
49177;SDS011;35016;55.674;37.468;2022-07-15T05:47:02;5.10;;;1.80;;
49177;SDS011;35016;55.674;37.468;2022-07-15T05:49:40;3.80;;;1.40;;
49177;SDS011;35016;55.674;37.468;2022-07-15T05:52:43;6.93;;;1.67;;
49177;SDS011;35016;55.674;37.468;2022-07-15T05:55:27;4.30;;;1.40;;
49177;SDS011;35016;55.674;37.468;2022-07-15T05:57:55;4.25;;;1.52;;
49177;SDS011;35016;55.674;37.468;2022-07-15T06:00:28;7.70;;;2.58;;
49177;SDS011;35016;55.674;37.468;2022-07-15T06:02:55;5.28;;;2.05;;
49177;SDS011;35016;55.674;37.468;2022-07-15T06:05:26;4.28;;;1.70;;
49177;SDS011;35016;55.674;37.468;2022-07-15T06:07:56;8.63;;;2.40;;
49177;SDS011;35016;55.674;37.468;2022-07-15T06:10:36;6.05;;;2.28;;
49177;SDS011;35016;55.674;37.468;2022-07-15T06:13:04;5.47;;;1.75;;
49177;SDS011;35016;55.674;37.468;2022-07-15T06:15:31;7.00;;;2.17;;
49177;SDS011;35016;55.674;37.468;2022-07-15T06:17:59;6.07;;;2.08;;
49177;SDS011;35016;55.674;37.468;2022-07-15T06:20:30;3.95;;;1.55;;
49177;SDS011;35016;55.674;37.468;2022-07-15T06:22:59;4.65;;;2.05;;
49177;SDS011;35016;55.674;37.468;2022-07-15T06:25:26;5.93;;;2.15;;
49177;SDS011;35016;55.674;37.468;2022-07-15T06:27:53;6.57;;;1.75;;
49177;SDS011;35016;55.674;37.468;2022-07-15T06:30:20;5.85;;;2.05;;
49177;SDS011;35016;55.674;37.468;2022-07-15T06:32:48;5.03;;;1.70;;
49177;SDS011;35016;55.674;37.468;2022-07-15T06:35:16;5.53;;;2.20;;
49177;SDS011;35016;55.674;37.468;2022-07-15T06:37:43;5.28;;;2.13;;
49177;SDS011;35016;55.674;37.468;2022-07-15T06:40:10;3.50;;;1.50;;
49177;SDS011;35016;55.674;37.468;2022-07-15T06:42:37;5.47;;;2.03;;
49177;SDS011;35016;55.674;37.468;2022-07-15T06:45:07;5.43;;;1.80;;
49177;SDS011;35016;55.674;37.468;2022-07-15T06:47:40;8.35;;;2.47;;
49177;SDS011;35016;55.674;37.468;2022-07-15T06:50:08;5.68;;;2.20;;
49177;SDS011;35016;55.674;37.468;2022-07-15T06:52:39;6.43;;;2.88;;
49177;SDS011;35016;55.674;37.468;2022-07-15T06:55:07;5.80;;;2.53;;
49177;SDS011;35016;55.674;37.468;2022-07-15T06:57:38;5.57;;;2.50;;
49177;SDS011;35016;55.674;37.468;2022-07-15T07:00:10;6.28;;;2.20;;
49177;SDS011;35016;55.674;37.468;2022-07-15T07:02:39;7.47;;;2.35;;
49177;SDS011;35016;55.674;37.468;2022-07-15T07:05:13;4.97;;;1.98;;
49177;SDS011;35016;55.674;37.468;2022-07-15T07:07:40;6.43;;;2.47;;
49177;SDS011;35016;55.674;37.468;2022-07-15T07:10:08;6.88;;;2.50;;
49177;SDS011;35016;55.674;37.468;2022-07-15T07:12:36;6.18;;;2.28;;
49177;SDS011;35016;55.674;37.468;2022-07-15T07:15:03;5.93;;;2.17;;
49177;SDS011;35016;55.674;37.468;2022-07-15T07:17:34;6.20;;;2.13;;
49177;SDS011;35016;55.674;37.468;2022-07-15T07:20:01;6.07;;;2.33;;
49177;SDS011;35016;55.674;37.468;2022-07-15T07:22:29;7.63;;;2.85;;
49177;SDS011;35016;55.674;37.468;2022-07-15T07:24:56;15.32;;;2.70;;
49177;SDS011;35016;55.674;37.468;2022-07-15T07:27:28;6.32;;;2.42;;
49177;SDS011;35016;55.674;37.468;2022-07-15T07:29:55;5.53;;;2.30;;
49177;SDS011;35016;55.674;37.468;2022-07-15T07:32:22;6.68;;;2.25;;
49177;SDS011;35016;55.674;37.468;2022-07-15T07:34:49;5.90;;;2.47;;
49177;SDS011;35016;55.674;37.468;2022-07-15T07:37:17;6.30;;;2.10;;
49177;SDS011;35016;55.674;37.468;2022-07-15T07:39:44;7.35;;;2.08;;
49177;SDS011;35016;55.674;37.468;2022-07-15T07:42:13;6.07;;;2.30;;
49177;SDS011;35016;55.674;37.468;2022-07-15T07:44:40;5.35;;;2.10;;
49177;SDS011;35016;55.674;37.468;2022-07-15T07:47:18;5.65;;;1.98;;
49177;SDS011;35016;55.674;37.468;2022-07-15T07:49:45;5.90;;;1.92;;
49177;SDS011;35016;55.674;37.468;2022-07-15T07:52:12;5.88;;;2.40;;
49177;SDS011;35016;55.674;37.468;2022-07-15T07:54:43;5.63;;;2.22;;
49177;SDS011;35016;55.674;37.468;2022-07-15T07:57:10;5.57;;;1.85;;
49177;SDS011;35016;55.674;37.468;2022-07-15T07:59:37;4.45;;;1.55;;
49177;SDS011;35016;55.674;37.468;2022-07-15T08:02:05;5.78;;;1.90;;
49177;SDS011;35016;55.674;37.468;2022-07-15T08:04:32;5.57;;;2.15;;
49177;SDS011;35016;55.674;37.468;2022-07-15T08:07:00;4.75;;;1.83;;
49177;SDS011;35016;55.674;37.468;2022-07-15T08:09:27;4.00;;;1.48;;
49177;SDS011;35016;55.674;37.468;2022-07-15T08:11:54;5.13;;;1.73;;
49177;SDS011;35016;55.674;37.468;2022-07-15T08:14:24;5.93;;;2.08;;
49177;SDS011;35016;55.674;37.468;2022-07-15T08:16:53;7.18;;;2.08;;
49177;SDS011;35016;55.674;37.468;2022-07-15T08:19:26;5.97;;;1.95;;
49177;SDS011;35016;55.674;37.468;2022-07-15T08:21:53;3.35;;;1.42;;
49177;SDS011;35016;55.674;37.468;2022-07-15T08:24:20;3.80;;;1.55;;
49177;SDS011;35016;55.674;37.468;2022-07-15T08:26:47;5.82;;;2.22;;
49177;SDS011;35016;55.674;37.468;2022-07-15T08:29:15;8.52;;;1.92;;
49177;SDS011;35016;55.674;37.468;2022-07-15T08:31:45;5.72;;;1.90;;
49177;SDS011;35016;55.674;37.468;2022-07-15T08:34:13;4.30;;;1.48;;
49177;SDS011;35016;55.674;37.468;2022-07-15T08:36:40;4.80;;;1.63;;
49177;SDS011;35016;55.674;37.468;2022-07-15T08:39:07;5.80;;;2.10;;
49177;SDS011;35016;55.674;37.468;2022-07-15T08:41:35;4.55;;;1.80;;
49177;SDS011;35016;55.674;37.468;2022-07-15T08:44:05;5.32;;;1.98;;
49177;SDS011;35016;55.674;37.468;2022-07-15T08:46:35;8.55;;;2.17;;
49177;SDS011;35016;55.674;37.468;2022-07-15T08:49:07;5.88;;;2.03;;
49177;SDS011;35016;55.674;37.468;2022-07-15T08:51:41;6.40;;;1.65;;
49177;SDS011;35016;55.674;37.468;2022-07-15T08:54:10;5.55;;;1.75;;
49177;SDS011;35016;55.674;37.468;2022-07-15T08:56:39;4.72;;;1.73;;
49177;SDS011;35016;55.674;37.468;2022-07-15T08:59:07;5.70;;;2.22;;
49177;SDS011;35016;55.674;37.468;2022-07-15T09:01:42;4.15;;;1.70;;
49177;SDS011;35016;55.674;37.468;2022-07-15T09:04:11;5.93;;;2.05;;
49177;SDS011;35016;55.674;37.468;2022-07-15T09:38:52;3.97;;;1.35;;
49177;SDS011;35016;55.674;37.468;2022-07-15T09:41:26;4.82;;;1.73;;
49177;SDS011;35016;55.674;37.468;2022-07-15T09:47:05;4.68;;;1.45;;
49177;SDS011;35016;55.674;37.468;2022-07-15T09:49:45;4.57;;;1.35;;
49177;SDS011;35016;55.674;37.468;2022-07-15T09:55:29;5.40;;;1.50;;
49177;SDS011;35016;55.674;37.468;2022-07-15T10:00:56;5.35;;;1.70;;
49177;SDS011;35016;55.674;37.468;2022-07-15T10:03:24;5.43;;;1.88;;
49177;SDS011;35016;55.674;37.468;2022-07-15T10:05:54;4.68;;;1.67;;
49177;SDS011;35016;55.674;37.468;2022-07-15T10:08:24;4.90;;;1.35;;
49177;SDS011;35016;55.674;37.468;2022-07-15T10:14:01;4.28;;;1.63;;
49177;SDS011;35016;55.674;37.468;2022-07-15T10:21:31;4.05;;;1.25;;
49177;SDS011;35016;55.674;37.468;2022-07-15T10:24:18;7.10;;;2.22;;
49177;SDS011;35016;55.674;37.468;2022-07-15T10:29:37;6.10;;;2.00;;
49177;SDS011;35016;55.674;37.468;2022-07-15T10:32:08;5.20;;;1.60;;
49177;SDS011;35016;55.674;37.468;2022-07-15T10:34:43;6.15;;;2.00;;
49177;SDS011;35016;55.674;37.468;2022-07-15T10:37:21;4.50;;;1.50;;
49177;SDS011;35016;55.674;37.468;2022-07-15T10:39:50;11.82;;;2.38;;
49177;SDS011;35016;55.674;37.468;2022-07-15T10:42:19;4.28;;;1.45;;
49177;SDS011;35016;55.674;37.468;2022-07-15T10:47:28;3.80;;;1.42;;
49177;SDS011;35016;55.674;37.468;2022-07-15T10:49:58;2.83;;;1.35;;
49177;SDS011;35016;55.674;37.468;2022-07-15T10:58:12;6.10;;;1.85;;
49177;SDS011;35016;55.674;37.468;2022-07-15T11:03:04;4.78;;;1.67;;
49177;SDS011;35016;55.674;37.468;2022-07-15T11:13:48;6.63;;;2.22;;
49177;SDS011;35016;55.674;37.468;2022-07-15T11:16:17;4.88;;;1.60;;
49177;SDS011;35016;55.674;37.468;2022-07-15T11:18:50;5.85;;;2.50;;
49177;SDS011;35016;55.674;37.468;2022-07-15T11:21:20;8.40;;;1.77;;
49177;SDS011;35016;55.674;37.468;2022-07-15T11:23:48;5.15;;;1.58;;
49177;SDS011;35016;55.674;37.468;2022-07-15T11:26:18;6.25;;;1.80;;
49177;SDS011;35016;55.674;37.468;2022-07-15T11:28:53;5.93;;;2.30;;
49177;SDS011;35016;55.674;37.468;2022-07-15T11:31:26;6.10;;;2.47;;
49177;SDS011;35016;55.674;37.468;2022-07-15T11:33:54;4.55;;;1.65;;
49177;SDS011;35016;55.674;37.468;2022-07-15T11:36:22;3.60;;;1.45;;
49177;SDS011;35016;55.674;37.468;2022-07-15T11:38:51;5.10;;;1.75;;
49177;SDS011;35016;55.674;37.468;2022-07-15T11:41:19;4.90;;;1.73;;
49177;SDS011;35016;55.674;37.468;2022-07-15T11:44:06;5.85;;;1.80;;
49177;SDS011;35016;55.674;37.468;2022-07-15T11:46:54;4.53;;;1.63;;
49177;SDS011;35016;55.674;37.468;2022-07-15T11:49:26;5.07;;;1.55;;
49177;SDS011;35016;55.674;37.468;2022-07-15T11:52:01;5.50;;;1.92;;
49177;SDS011;35016;55.674;37.468;2022-07-15T11:54:30;5.15;;;1.73;;
49177;SDS011;35016;55.674;37.468;2022-07-15T11:56:59;3.65;;;1.80;;
49177;SDS011;35016;55.674;37.468;2022-07-15T11:59:28;5.45;;;1.63;;
49177;SDS011;35016;55.674;37.468;2022-07-15T12:04:35;11.65;;;2.35;;
49177;SDS011;35016;55.674;37.468;2022-07-15T12:07:03;4.78;;;1.65;;
49177;SDS011;35016;55.674;37.468;2022-07-15T12:09:41;4.20;;;1.65;;
49177;SDS011;35016;55.674;37.468;2022-07-15T12:12:08;6.28;;;1.77;;
49177;SDS011;35016;55.674;37.468;2022-07-15T12:14:36;6.25;;;1.90;;
49177;SDS011;35016;55.674;37.468;2022-07-15T12:17:03;5.97;;;2.25;;
49177;SDS011;35016;55.674;37.468;2022-07-15T12:19:32;6.65;;;2.03;;
49177;SDS011;35016;55.674;37.468;2022-07-15T12:22:05;5.15;;;1.65;;
49177;SDS011;35016;55.674;37.468;2022-07-15T12:24:39;6.80;;;1.85;;
49177;SDS011;35016;55.674;37.468;2022-07-15T12:27:18;7.22;;;2.60;;
49177;SDS011;35016;55.674;37.468;2022-07-15T12:30:01;5.45;;;2.08;;
49177;SDS011;35016;55.674;37.468;2022-07-15T12:32:35;4.30;;;1.50;;
49177;SDS011;35016;55.674;37.468;2022-07-15T12:35:04;8.55;;;2.20;;
49177;SDS011;35016;55.674;37.468;2022-07-15T12:40:11;6.45;;;1.98;;
49177;SDS011;35016;55.674;37.468;2022-07-15T12:42:41;3.65;;;1.42;;
49177;SDS011;35016;55.674;37.468;2022-07-15T12:45:15;4.53;;;1.73;;
49177;SDS011;35016;55.674;37.468;2022-07-15T12:50:27;4.88;;;1.58;;
49177;SDS011;35016;55.674;37.468;2022-07-15T12:53:01;9.50;;;2.25;;
49177;SDS011;35016;55.674;37.468;2022-07-15T12:55:33;6.03;;;2.05;;
49177;SDS011;35016;55.674;37.468;2022-07-15T12:58:09;4.88;;;1.55;;
49177;SDS011;35016;55.674;37.468;2022-07-15T13:00:43;6.65;;;1.67;;
49177;SDS011;35016;55.674;37.468;2022-07-15T13:05:50;5.43;;;1.38;;
49177;SDS011;35016;55.674;37.468;2022-07-15T13:08:19;5.25;;;1.10;;
49177;SDS011;35016;55.674;37.468;2022-07-15T13:10:52;5.22;;;1.92;;
49177;SDS011;35016;55.674;37.468;2022-07-15T13:13:22;5.30;;;1.73;;
49177;SDS011;35016;55.674;37.468;2022-07-15T13:15:51;4.72;;;1.58;;
49177;SDS011;35016;55.674;37.468;2022-07-15T13:18:19;3.78;;;1.63;;
49177;SDS011;35016;55.674;37.468;2022-07-15T13:20:47;5.90;;;1.88;;
49177;SDS011;35016;55.674;37.468;2022-07-15T13:23:15;5.32;;;1.85;;
49177;SDS011;35016;55.674;37.468;2022-07-15T13:25:42;5.97;;;1.67;;
49177;SDS011;35016;55.674;37.468;2022-07-15T13:28:09;4.45;;;1.65;;
49177;SDS011;35016;55.674;37.468;2022-07-15T13:30:37;5.25;;;1.67;;
49177;SDS011;35016;55.674;37.468;2022-07-15T13:33:05;5.78;;;1.65;;
49177;SDS011;35016;55.674;37.468;2022-07-15T13:35:33;6.50;;;1.88;;
49177;SDS011;35016;55.674;37.468;2022-07-15T13:38:00;4.22;;;1.15;;
49177;SDS011;35016;55.674;37.468;2022-07-15T13:40:27;4.57;;;1.42;;
49177;SDS011;35016;55.674;37.468;2022-07-15T13:42:54;4.80;;;1.73;;
49177;SDS011;35016;55.674;37.468;2022-07-15T13:45:21;4.60;;;1.60;;
49177;SDS011;35016;55.674;37.468;2022-07-15T13:47:49;6.45;;;1.85;;
49177;SDS011;35016;55.674;37.468;2022-07-15T13:59:24;4.68;;;1.42;;
49177;SDS011;35016;55.674;37.468;2022-07-15T14:02:18;3.53;;;1.27;;
49177;SDS011;35016;55.674;37.468;2022-07-15T14:04:55;5.30;;;1.23;;
49177;SDS011;35016;55.674;37.468;2022-07-15T14:07:23;4.85;;;1.60;;
49177;SDS011;35016;55.674;37.468;2022-07-15T14:11:04;5.40;;;1.42;;
49177;SDS011;35016;55.674;37.468;2022-07-15T14:13:51;4.78;;;1.88;;
49177;SDS011;35016;55.674;37.468;2022-07-15T14:16:19;3.45;;;1.33;;
49177;SDS011;35016;55.674;37.468;2022-07-15T14:18:50;9.77;;;1.70;;
49177;SDS011;35016;55.674;37.468;2022-07-15T14:21:18;4.40;;;1.27;;
49177;SDS011;35016;55.674;37.468;2022-07-15T14:23:45;4.43;;;1.55;;
49177;SDS011;35016;55.674;37.468;2022-07-15T14:26:13;6.07;;;2.28;;
49177;SDS011;35016;55.674;37.468;2022-07-15T14:28:40;5.43;;;1.50;;
49177;SDS011;35016;55.674;37.468;2022-07-15T14:31:10;5.28;;;1.75;;
49177;SDS011;35016;55.674;37.468;2022-07-15T14:33:40;5.55;;;1.40;;
49177;SDS011;35016;55.674;37.468;2022-07-15T14:36:08;5.53;;;1.92;;
49177;SDS011;35016;55.674;37.468;2022-07-15T14:38:37;6.05;;;1.83;;
49177;SDS011;35016;55.674;37.468;2022-07-15T14:41:05;4.57;;;1.25;;
49177;SDS011;35016;55.674;37.468;2022-07-15T14:43:33;4.80;;;1.70;;
49177;SDS011;35016;55.674;37.468;2022-07-15T14:46:00;6.82;;;1.75;;
49177;SDS011;35016;55.674;37.468;2022-07-15T14:48:28;3.50;;;1.25;;
49177;SDS011;35016;55.674;37.468;2022-07-15T14:50:55;4.13;;;1.67;;
49177;SDS011;35016;55.674;37.468;2022-07-15T14:53:22;8.55;;;2.10;;
49177;SDS011;35016;55.674;37.468;2022-07-15T14:55:49;5.60;;;1.77;;
49177;SDS011;35016;55.674;37.468;2022-07-15T14:58:16;6.10;;;1.75;;
49177;SDS011;35016;55.674;37.468;2022-07-15T15:00:45;6.55;;;2.33;;
49177;SDS011;35016;55.674;37.468;2022-07-15T15:03:22;5.28;;;1.23;;
49177;SDS011;35016;55.674;37.468;2022-07-15T15:05:52;7.28;;;1.58;;
49177;SDS011;35016;55.674;37.468;2022-07-15T15:08:19;5.50;;;1.95;;
49177;SDS011;35016;55.674;37.468;2022-07-15T15:10:46;9.82;;;2.15;;
49177;SDS011;35016;55.674;37.468;2022-07-15T15:13:13;6.70;;;1.63;;
49177;SDS011;35016;55.674;37.468;2022-07-15T15:15:41;6.82;;;2.63;;
49177;SDS011;35016;55.674;37.468;2022-07-15T15:18:08;4.45;;;1.40;;
49177;SDS011;35016;55.674;37.468;2022-07-15T15:20:37;5.13;;;1.40;;
49177;SDS011;35016;55.674;37.468;2022-07-15T15:23:04;3.35;;;1.00;;
49177;SDS011;35016;55.674;37.468;2022-07-15T15:25:31;4.88;;;1.40;;
49177;SDS011;35016;55.674;37.468;2022-07-15T15:28:17;3.60;;;1.33;;
49177;SDS011;35016;55.674;37.468;2022-07-15T15:30:44;4.70;;;1.15;;
49177;SDS011;35016;55.674;37.468;2022-07-15T15:33:11;3.30;;;1.27;;
49177;SDS011;35016;55.674;37.468;2022-07-15T15:35:39;3.50;;;1.42;;
49177;SDS011;35016;55.674;37.468;2022-07-15T15:38:06;9.15;;;1.70;;
49177;SDS011;35016;55.674;37.468;2022-07-15T15:40:33;4.57;;;1.73;;
49177;SDS011;35016;55.674;37.468;2022-07-15T15:43:00;2.72;;;1.15;;
49177;SDS011;35016;55.674;37.468;2022-07-15T15:45:29;3.83;;;1.20;;
49177;SDS011;35016;55.674;37.468;2022-07-15T15:47:56;4.53;;;1.05;;
49177;SDS011;35016;55.674;37.468;2022-07-15T15:50:23;4.22;;;1.33;;
49177;SDS011;35016;55.674;37.468;2022-07-15T15:52:50;6.40;;;1.48;;
49177;SDS011;35016;55.674;37.468;2022-07-15T15:55:20;3.15;;;0.80;;
49177;SDS011;35016;55.674;37.468;2022-07-15T15:57:49;3.78;;;1.17;;
49177;SDS011;35016;55.674;37.468;2022-07-15T16:00:36;5.00;;;1.83;;
49177;SDS011;35016;55.674;37.468;2022-07-15T16:03:03;5.60;;;1.30;;
49177;SDS011;35016;55.674;37.468;2022-07-15T16:05:31;5.55;;;1.77;;
49177;SDS011;35016;55.674;37.468;2022-07-15T16:07:58;4.68;;;1.45;;
49177;SDS011;35016;55.674;37.468;2022-07-15T16:10:27;5.72;;;2.33;;
49177;SDS011;35016;55.674;37.468;2022-07-15T16:12:55;5.15;;;1.52;;
49177;SDS011;35016;55.674;37.468;2022-07-15T16:15:22;7.13;;;1.98;;
49177;SDS011;35016;55.674;37.468;2022-07-15T16:17:50;3.75;;;1.17;;
49177;SDS011;35016;55.674;37.468;2022-07-15T16:20:17;6.43;;;1.52;;
49177;SDS011;35016;55.674;37.468;2022-07-15T16:22:44;5.53;;;1.85;;
49177;SDS011;35016;55.674;37.468;2022-07-15T16:25:24;5.57;;;1.58;;
49177;SDS011;35016;55.674;37.468;2022-07-15T16:27:55;8.02;;;1.70;;
49177;SDS011;35016;55.674;37.468;2022-07-15T16:30:24;5.03;;;1.20;;
49177;SDS011;35016;55.674;37.468;2022-07-15T16:32:57;4.40;;;1.33;;
49177;SDS011;35016;55.674;37.468;2022-07-15T16:35:25;5.07;;;1.60;;